createdAt,value
2018-09-19T00:00:12.576Z,1008.91
2018-09-19T00:01:22.574Z,1008.91
2018-09-19T00:02:32.545Z,1008.91
2018-09-19T00:03:42.248Z,1008.9
2018-09-19T00:04:51.943Z,1008.98
2018-09-19T00:06:01.912Z,1008.94
2018-09-19T00:07:11.882Z,1008.97
2018-09-19T00:08:21.831Z,1008.94
2018-09-19T00:09:31.545Z,1008.99
2018-09-19T00:10:41.240Z,1008.96
2018-09-19T00:11:51.256Z,1008.96
2018-09-19T00:13:01.277Z,1008.97
2018-09-19T00:14:11.281Z,1008.97
2018-09-19T00:15:21.242Z,1009
2018-09-19T00:16:31.210Z,1009.01
2018-09-19T00:17:41.165Z,1009.02
2018-09-19T00:18:51.189Z,1009.02
2018-09-19T00:20:01.183Z,1009.05
2018-09-19T00:21:11.490Z,1009.02
2018-09-19T00:22:21.192Z,1009.05
2018-09-19T00:23:31.155Z,1009.11
2018-09-19T00:24:40.868Z,1009.09
2018-09-19T00:25:50.579Z,1009.07
2018-09-19T00:27:00.611Z,1009.11
2018-09-19T00:28:10.651Z,1009.07
2018-09-19T00:29:20.610Z,1009.09
2018-09-19T00:30:30.572Z,1009.11
2018-09-19T00:31:40.532Z,1009.13
2018-09-19T00:32:50.493Z,1009.13
2018-09-19T00:34:00.237Z,1009.12
2018-09-19T00:35:10.214Z,1009.15
2018-09-19T00:36:19.685Z,1009.18
2018-09-19T00:37:29.132Z,1009.21
2018-09-19T00:38:39.087Z,1009.18
2018-09-19T00:39:49.060Z,1009.12
2018-09-19T00:40:58.754Z,1009.14
2018-09-19T00:42:08.766Z,1009.12
2018-09-19T00:43:18.738Z,1009.18
2018-09-19T00:44:28.752Z,1009.18
2018-09-19T00:45:38.727Z,1009.18
2018-09-19T00:46:48.693Z,1009.22
2018-09-19T00:47:58.651Z,1009.28
2018-09-19T00:49:08.353Z,1009.37
2018-09-19T00:50:18.318Z,1009.32
2018-09-19T00:51:28.279Z,1009.34
2018-09-19T00:52:38.238Z,1009.37
2018-09-19T00:53:48.205Z,1009.41
2018-09-19T00:54:58.167Z,1009.42
2018-09-19T00:56:08.153Z,1009.39
2018-09-19T00:57:17.900Z,1009.37
2018-09-19T00:58:27.857Z,1009.42
2018-09-19T00:59:37.839Z,1009.47
2018-09-19T01:00:47.804Z,1009.46
2018-09-19T01:01:57.763Z,1009.48
2018-09-19T01:03:07.734Z,1009.43
2018-09-19T01:04:17.442Z,1009.48
2018-09-19T01:05:27.426Z,1009.44
2018-09-19T01:06:37.390Z,1009.47
2018-09-19T01:07:47.364Z,1009.48
2018-09-19T01:08:57.348Z,1009.47
2018-09-19T01:10:07.312Z,1009.45
2018-09-19T01:11:17.009Z,1009.48
2018-09-19T01:12:26.975Z,1009.59
2018-09-19T01:13:36.671Z,1009.57
2018-09-19T01:14:46.108Z,1009.63
2018-09-19T01:15:55.807Z,1009.57
2018-09-19T01:17:05.809Z,1009.57
2018-09-19T01:18:15.760Z,1009.56
2018-09-19T01:19:25.733Z,1009.58
2018-09-19T01:20:35.696Z,1009.53
2018-09-19T01:21:45.660Z,1009.55
2018-09-19T01:22:55.369Z,1009.59
2018-09-19T01:24:05.313Z,1009.62
2018-09-19T01:25:15.299Z,1009.61
2018-09-19T01:26:25.262Z,1009.62
2018-09-19T01:27:34.971Z,1009.66
2018-09-19T01:28:44.925Z,1009.7
2018-09-19T01:29:54.883Z,1009.72
2018-09-19T01:31:04.838Z,1009.74
2018-09-19T01:32:14.779Z,1009.76
2018-09-19T01:33:24.229Z,1009.69
2018-09-19T01:34:33.920Z,1009.73
2018-09-19T01:35:44.069Z,1009.76
2018-09-19T01:36:53.771Z,1009.79
2018-09-19T01:38:03.474Z,1009.78
2018-09-19T01:39:13.189Z,1009.86
2018-09-19T01:40:22.923Z,1009.88
2018-09-19T01:41:32.375Z,1009.87
2018-09-19T01:42:42.075Z,1009.92
2018-09-19T01:43:52.025Z,1009.96
2018-09-19T01:45:01.983Z,1010
2018-09-19T01:46:11.675Z,1010.05
2018-09-19T01:47:21.627Z,1010.07
2018-09-19T01:48:31.607Z,1010.15
2018-09-19T01:49:41.326Z,1010.19
2018-09-19T01:50:51.308Z,1010.15
2018-09-19T01:52:01.274Z,1010.17
2018-09-19T01:53:10.990Z,1010.24
2018-09-19T01:54:20.964Z,1010.31
2018-09-19T01:55:30.921Z,1010.35
2018-09-19T01:56:40.927Z,1010.36
2018-09-19T01:57:50.629Z,1010.4
2018-09-19T01:59:00.627Z,1010.41
2018-09-19T02:00:10.590Z,1010.43
2018-09-19T02:01:20.108Z,1010.45
2018-09-19T02:02:29.807Z,1010.41
2018-09-19T02:03:39.768Z,1010.47
2018-09-19T02:04:49.725Z,1010.47
2018-09-19T02:05:59.690Z,1010.45
2018-09-19T02:07:09.692Z,1010.49
2018-09-19T02:08:19.652Z,1010.55
2018-09-19T02:09:29.349Z,1010.54
2018-09-19T02:10:39.330Z,1010.67
2018-09-19T02:11:48.772Z,1010.71
2018-09-19T02:12:58.825Z,1010.76
2018-09-19T02:14:08.529Z,1010.75
2018-09-19T02:15:18.500Z,1010.8
2018-09-19T02:16:28.194Z,1010.85
2018-09-19T02:17:38.157Z,1010.81
2018-09-19T02:18:47.921Z,1010.79
2018-09-19T02:19:57.928Z,1010.78
2018-09-19T02:21:07.376Z,1010.81
2018-09-19T02:22:17.074Z,1010.84
2018-09-19T02:23:26.781Z,1010.82
2018-09-19T02:24:36.751Z,1010.85
2018-09-19T02:25:46.701Z,1010.83
2018-09-19T02:26:56.675Z,1010.77
2018-09-19T02:28:06.640Z,1010.77
2018-09-19T02:29:16.348Z,1010.73
2018-09-19T02:30:26.307Z,1010.75
2018-09-19T02:31:36.318Z,1010.73
2018-09-19T02:32:46.012Z,1010.73
2018-09-19T02:33:55.979Z,1010.81
2018-09-19T02:35:05.667Z,1010.78
2018-09-19T02:36:15.639Z,1010.82
2018-09-19T02:37:25.626Z,1010.81
2018-09-19T02:38:35.338Z,1010.84
2018-09-19T02:39:44.864Z,1010.89
2018-09-19T02:40:54.811Z,1010.85
2018-09-19T02:42:04.775Z,1010.79
2018-09-19T02:43:14.506Z,1010.87
2018-09-19T02:44:24.480Z,1010.93
2018-09-19T02:45:34.455Z,1010.99
2018-09-19T02:46:44.408Z,1011.01
2018-09-19T02:47:54.376Z,1011.05
2018-09-19T02:49:04.100Z,1011.06
2018-09-19T02:50:13.804Z,1011.1
2018-09-19T02:51:23.551Z,1011.08
2018-09-19T02:52:33.512Z,1011.02
2018-09-19T02:53:43.263Z,1011.02
2018-09-19T02:54:53.017Z,1010.98
2018-09-19T02:56:02.750Z,1011.01
2018-09-19T02:57:12.751Z,1011.01
2018-09-19T02:58:22.703Z,1010.98
2018-09-19T02:59:32.676Z,1011.04
2018-09-19T03:00:42.630Z,1011.13
2018-09-19T03:01:52.595Z,1011.13
2018-09-19T03:03:02.608Z,1011.14
2018-09-19T03:04:12.561Z,1011.13
2018-09-19T03:05:22.524Z,1011.16
2018-09-19T03:06:32.508Z,1011.15
2018-09-19T03:07:42.508Z,1011.16
2018-09-19T03:08:52.461Z,1011.16
2018-09-19T03:10:02.437Z,1011.19
2018-09-19T03:11:12.418Z,1011.16
2018-09-19T03:12:22.113Z,1011.12
2018-09-19T03:13:31.569Z,1011.12
2018-09-19T03:14:41.548Z,1011.12
2018-09-19T03:15:51.259Z,1011.19
2018-09-19T03:17:01.243Z,1011.18
2018-09-19T03:18:11.792Z,1011.17
2018-09-19T03:19:21.222Z,1011.19
2018-09-19T03:20:31.230Z,1011.18
2018-09-19T03:21:41.251Z,1011.23
2018-09-19T03:22:51.216Z,1011.24
2018-09-19T03:24:01.189Z,1011.22
2018-09-19T03:25:11.149Z,1011.2
2018-09-19T03:26:21.099Z,1011.24
2018-09-19T03:27:30.795Z,1011.28
2018-09-19T03:28:40.492Z,1011.26
2018-09-19T03:29:50.196Z,1011.29
2018-09-19T03:30:59.643Z,1011.3
2018-09-19T03:32:09.607Z,1011.3
2018-09-19T03:33:19.585Z,1011.36
2018-09-19T03:34:29.348Z,1011.41
2018-09-19T03:35:39.330Z,1011.42
2018-09-19T03:36:49.306Z,1011.52
2018-09-19T03:37:59.023Z,1011.47
2018-09-19T03:39:08.987Z,1011.47
2018-09-19T03:40:18.954Z,1011.52
2018-09-19T03:41:28.655Z,1011.52
2018-09-19T03:42:38.639Z,1011.48
2018-09-19T03:43:48.753Z,1011.51
2018-09-19T03:44:58.514Z,1011.47
2018-09-19T03:46:08.494Z,1011.46
2018-09-19T03:47:18.466Z,1011.5
2018-09-19T03:48:28.414Z,1011.52
2018-09-19T03:49:38.109Z,1011.52
2018-09-19T03:50:48.069Z,1011.51
2018-09-19T03:51:57.533Z,1011.52
2018-09-19T03:53:07.290Z,1011.53
2018-09-19T03:54:17.256Z,1011.54
2018-09-19T03:55:27.215Z,1011.52
2018-09-19T03:56:37.073Z,1011.54
2018-09-19T03:57:47.039Z,1011.52
2018-09-19T03:58:57.049Z,1011.52
2018-09-19T04:00:07.005Z,1011.54
2018-09-19T04:01:16.984Z,1011.57
2018-09-19T04:02:26.682Z,1011.54
2018-09-19T04:03:36.382Z,1011.56
2018-09-19T04:04:46.331Z,1011.57
2018-09-19T04:05:56.301Z,1011.6
2018-09-19T04:07:06.019Z,1011.6
2018-09-19T04:08:15.725Z,1011.65
2018-09-19T04:09:25.446Z,1011.68
2018-09-19T04:10:35.425Z,1011.62
2018-09-19T04:11:45.405Z,1011.65
2018-09-19T04:12:55.631Z,1011.69
2018-09-19T04:14:05.600Z,1011.67
2018-09-19T04:15:15.573Z,1011.66
2018-09-19T04:16:25.288Z,1011.67
2018-09-19T04:17:35.281Z,1011.7
2018-09-19T04:18:44.847Z,1011.71
2018-09-19T04:19:54.537Z,1011.72
2018-09-19T04:21:04.268Z,1011.72
2018-09-19T04:22:14.248Z,1011.76
2018-09-19T04:23:23.956Z,1011.75
2018-09-19T04:24:33.931Z,1011.72
2018-09-19T04:25:43.901Z,1011.79
2018-09-19T04:26:53.879Z,1011.8
2018-09-19T04:28:03.575Z,1011.81
2018-09-19T04:29:13.539Z,1011.8
2018-09-19T04:30:23.566Z,1011.81
2018-09-19T04:31:33.535Z,1011.85
2018-09-19T04:32:43.265Z,1011.84
2018-09-19T04:33:53.242Z,1011.82
2018-09-19T04:35:02.960Z,1011.86
2018-09-19T04:36:13.303Z,1011.89
2018-09-19T04:37:22.759Z,1011.9
2018-09-19T04:38:32.730Z,1011.91
2018-09-19T04:39:42.726Z,1011.96
2018-09-19T04:40:52.669Z,1011.96
2018-09-19T04:42:02.374Z,1011.93
2018-09-19T04:43:12.364Z,1011.96
2018-09-19T04:44:22.347Z,1011.9
2018-09-19T04:45:32.332Z,1011.9
2018-09-19T04:46:42.292Z,1011.93
2018-09-19T04:47:52.018Z,1011.93
2018-09-19T04:49:02.010Z,1011.9
2018-09-19T04:50:11.989Z,1011.94
2018-09-19T04:51:21.738Z,1011.94
2018-09-19T04:52:32.157Z,1012.04
2018-09-19T04:53:42.131Z,1012.03
2018-09-19T04:54:51.889Z,1012.03
2018-09-19T04:56:01.861Z,1012.05
2018-09-19T04:57:11.830Z,1012.04
2018-09-19T04:58:21.802Z,1012.12
2018-09-19T04:59:31.757Z,1012.09
2018-09-19T05:00:41.472Z,1012.11
2018-09-19T05:01:51.501Z,1012.12
2018-09-19T05:03:01.503Z,1012.08
2018-09-19T05:04:11.515Z,1012.07
2018-09-19T05:05:21.498Z,1012.08
2018-09-19T05:06:31.233Z,1012.13
2018-09-19T05:07:41.198Z,1012.13
2018-09-19T05:08:50.724Z,1012.12
2018-09-19T05:10:00.710Z,1012.16
2018-09-19T05:11:10.709Z,1012.15
2018-09-19T05:12:20.931Z,1012.17
2018-09-19T05:13:30.897Z,1012.19
2018-09-19T05:14:40.878Z,1012.21
2018-09-19T05:15:50.877Z,1012.22
2018-09-19T05:17:00.841Z,1012.25
2018-09-19T05:18:10.565Z,1012.26
2018-09-19T05:19:20.535Z,1012.31
2018-09-19T05:20:30.569Z,1012.29
2018-09-19T05:21:40.281Z,1012.29
2018-09-19T05:22:49.989Z,1012.29
2018-09-19T05:23:59.962Z,1012.32
2018-09-19T05:25:09.944Z,1012.32
2018-09-19T05:26:19.400Z,1012.26
2018-09-19T05:27:29.433Z,1012.28
2018-09-19T05:28:39.155Z,1012.31
2018-09-19T05:29:49.110Z,1012.32
2018-09-19T05:30:59.083Z,1012.36
2018-09-19T05:32:09.043Z,1012.29
2018-09-19T05:33:19.005Z,1012.35
2018-09-19T05:34:28.701Z,1012.41
2018-09-19T05:35:38.421Z,1012.36
2018-09-19T05:36:48.142Z,1012.42
2018-09-19T05:37:57.864Z,1012.44
2018-09-19T05:39:07.821Z,1012.44
2018-09-19T05:40:17.781Z,1012.49
2018-09-19T05:41:27.524Z,1012.52
2018-09-19T05:42:37.492Z,1012.49
2018-09-19T05:43:47.465Z,1012.42
2018-09-19T05:44:57.179Z,1012.4
2018-09-19T05:46:06.874Z,1012.44
2018-09-19T05:47:16.897Z,1012.49
2018-09-19T05:48:26.867Z,1012.52
2018-09-19T05:49:36.861Z,1012.57
2018-09-19T05:50:46.828Z,1012.55
2018-09-19T05:51:56.788Z,1012.52
2018-09-19T05:53:06.758Z,1012.51
2018-09-19T05:54:16.718Z,1012.53
2018-09-19T05:55:26.858Z,1012.59
2018-09-19T05:56:36.857Z,1012.6
2018-09-19T05:57:46.568Z,1012.62
2018-09-19T05:58:56.808Z,1012.57
2018-09-19T06:00:06.525Z,1012.54
2018-09-19T06:01:16.490Z,1012.53
2018-09-19T06:02:25.952Z,1012.56
2018-09-19T06:03:35.779Z,1012.58
2018-09-19T06:04:45.798Z,1012.64
2018-09-19T06:05:55.371Z,1012.6
2018-09-19T06:07:05.531Z,1012.66
2018-09-19T06:08:15.251Z,1012.66
2018-09-19T06:09:25.246Z,1012.67
2018-09-19T06:10:35.221Z,1012.67
2018-09-19T06:11:45.187Z,1012.68
2018-09-19T06:12:55.231Z,1012.68
2018-09-19T06:14:05.315Z,1012.67
2018-09-19T06:15:15.292Z,1012.69
2018-09-19T06:16:25.073Z,1012.71
2018-09-19T06:17:35.056Z,1012.74
2018-09-19T06:18:45.106Z,1012.75
2018-09-19T06:19:54.826Z,1012.77
2018-09-19T06:21:04.802Z,1012.76
2018-09-19T06:22:14.500Z,1012.76
2018-09-19T06:23:24.485Z,1012.79
2018-09-19T06:24:34.448Z,1012.82
2018-09-19T06:25:44.431Z,1012.8
2018-09-19T06:26:54.437Z,1012.81
2018-09-19T06:28:04.814Z,1012.85
2018-09-19T06:29:14.774Z,1012.86
2018-09-19T06:30:24.728Z,1012.85
2018-09-19T06:31:34.701Z,1012.91
2018-09-19T06:32:44.722Z,1012.92
2018-09-19T06:33:54.712Z,1012.97
2018-09-19T06:35:04.674Z,1013
2018-09-19T06:36:14.384Z,1012.98
2018-09-19T06:37:24.344Z,1013
2018-09-19T06:38:34.318Z,1013.02
2018-09-19T06:39:44.302Z,1013.02
2018-09-19T06:40:54.572Z,1013.06
2018-09-19T06:42:05.801Z,1013.1
2018-09-19T06:43:16.260Z,1013.1
2018-09-19T06:44:26.205Z,1013.14
2018-09-19T06:45:36.429Z,1013.1
2018-09-19T06:46:46.885Z,1013.14
2018-09-19T06:47:57.318Z,1013.14
2018-09-19T06:49:07.125Z,1013.14
2018-09-19T06:50:16.850Z,1013.15
2018-09-19T06:51:26.858Z,1013.17
2018-09-19T06:52:36.851Z,1013.19
2018-09-19T06:53:46.832Z,1013.13
2018-09-19T06:54:56.795Z,1013.18
2018-09-19T06:56:06.792Z,1013.2
2018-09-19T06:57:16.509Z,1013.21
2018-09-19T06:58:26.240Z,1013.23
2018-09-19T06:59:36.274Z,1013.21
2018-09-19T07:00:46.298Z,1013.21
2018-09-19T07:01:56.056Z,1013.22
2018-09-19T07:03:06.065Z,1013.22
2018-09-19T07:04:15.773Z,1013.24
2018-09-19T07:05:25.775Z,1013.31
2018-09-19T07:06:35.787Z,1013.3
2018-09-19T07:07:45.746Z,1013.29
2018-09-19T07:08:55.740Z,1013.3
2018-09-19T07:10:05.731Z,1013.32
2018-09-19T07:11:15.749Z,1013.32
2018-09-19T07:12:25.731Z,1013.34
2018-09-19T07:13:35.637Z,1013.31
2018-09-19T07:14:45.647Z,1013.33
2018-09-19T07:15:55.688Z,1013.37
2018-09-19T07:17:05.714Z,1013.32
2018-09-19T07:18:15.691Z,1013.38
2018-09-19T07:19:25.721Z,1013.38
2018-09-19T07:20:35.183Z,1013.4
2018-09-19T07:21:45.146Z,1013.43
2018-09-19T07:22:55.168Z,1013.41
2018-09-19T07:24:05.398Z,1013.43
2018-09-19T07:25:15.455Z,1013.47
2018-09-19T07:26:26.182Z,1013.51
2018-09-19T07:27:36.327Z,1013.5
2018-09-19T07:28:46.316Z,1013.56
2018-09-19T07:29:56.276Z,1013.58
2018-09-19T07:31:06.358Z,1013.58
2018-09-19T07:32:16.988Z,1013.58
2018-09-19T07:33:26.937Z,1013.57
2018-09-19T07:34:36.655Z,1013.58
2018-09-19T07:35:46.863Z,1013.63
2018-09-19T07:36:56.321Z,1013.61
2018-09-19T07:38:06.023Z,1013.64
2018-09-19T07:39:16.052Z,1013.67
2018-09-19T07:40:26.092Z,1013.65
2018-09-19T07:41:36.172Z,1013.61
2018-09-19T07:42:46.171Z,1013.64
2018-09-19T07:43:55.869Z,1013.68
2018-09-19T07:45:05.855Z,1013.63
2018-09-19T07:46:15.836Z,1013.67
2018-09-19T07:47:25.681Z,1013.62
2018-09-19T07:48:35.399Z,1013.59
2018-09-19T07:49:45.115Z,1013.6
2018-09-19T07:50:54.594Z,1013.58
2018-09-19T07:52:04.555Z,1013.62
2018-09-19T07:53:14.273Z,1013.54
2018-09-19T07:54:24.308Z,1013.63
2018-09-19T07:55:34.666Z,1013.65
2018-09-19T07:56:44.431Z,1013.66
2018-09-19T07:57:54.678Z,1013.65
2018-09-19T07:59:04.153Z,1013.68
2018-09-19T08:00:13.600Z,1013.63
2018-09-19T08:01:23.630Z,1013.63
2018-09-19T08:02:33.602Z,1013.62
2018-09-19T08:03:43.602Z,1013.63
2018-09-19T08:04:53.383Z,1013.67
2018-09-19T08:06:03.107Z,1013.71
2018-09-19T08:07:13.081Z,1013.72
2018-09-19T08:08:23.076Z,1013.67
2018-09-19T08:09:32.804Z,1013.72
2018-09-19T08:10:42.506Z,1013.71
2018-09-19T08:11:52.498Z,1013.73
2018-09-19T08:13:02.253Z,1013.73
2018-09-19T08:14:12.261Z,1013.71
2018-09-19T08:15:22.259Z,1013.67
2018-09-19T08:16:31.693Z,1013.71
2018-09-19T08:17:41.785Z,1013.73
2018-09-19T08:18:51.782Z,1013.74
2018-09-19T08:20:02.011Z,1013.76
2018-09-19T08:21:12.031Z,1013.78
2018-09-19T08:22:22.003Z,1013.76
2018-09-19T08:23:31.869Z,1013.73
2018-09-19T08:24:41.601Z,1013.77
2018-09-19T08:25:51.323Z,1013.76
2018-09-19T08:27:01.273Z,1013.74
2018-09-19T08:28:10.992Z,1013.8
2018-09-19T08:29:20.959Z,1013.75
2018-09-19T08:30:30.948Z,1013.75
2018-09-19T08:31:40.944Z,1013.76
2018-09-19T08:32:50.680Z,1013.8
2018-09-19T08:34:00.679Z,1013.75
2018-09-19T08:35:10.665Z,1013.77
2018-09-19T08:36:20.685Z,1013.79
2018-09-19T08:37:30.659Z,1013.73
2018-09-19T08:38:40.635Z,1013.76
2018-09-19T08:39:50.626Z,1013.79
2018-09-19T08:41:00.611Z,1013.8
2018-09-19T08:42:10.330Z,1013.81
2018-09-19T08:43:20.313Z,1013.78
2018-09-19T08:44:30.309Z,1013.76
2018-09-19T08:45:40.324Z,1013.79
2018-09-19T08:46:50.066Z,1013.78
2018-09-19T08:48:00.075Z,1013.75
2018-09-19T08:49:09.847Z,1013.77
2018-09-19T08:50:19.579Z,1013.78
2018-09-19T08:51:29.760Z,1013.81
2018-09-19T08:52:39.750Z,1013.84
2018-09-19T08:53:49.772Z,1013.88
2018-09-19T08:54:59.818Z,1013.81
2018-09-19T08:56:09.598Z,1013.84
2018-09-19T08:57:19.643Z,1013.83
2018-09-19T08:58:29.651Z,1013.83
2018-09-19T08:59:39.631Z,1013.86
2018-09-19T09:00:49.641Z,1013.82
2018-09-19T09:01:59.621Z,1013.85
2018-09-19T09:03:09.343Z,1013.85
2018-09-19T09:04:19.059Z,1013.84
2018-09-19T09:05:29.076Z,1013.89
2018-09-19T09:06:38.672Z,1013.86
2018-09-19T09:07:48.383Z,1013.9
2018-09-19T09:08:58.372Z,1013.86
2018-09-19T09:10:08.566Z,1013.9
2018-09-19T09:11:18.297Z,1013.95
2018-09-19T09:12:27.756Z,1013.89
2018-09-19T09:13:38.002Z,1013.93
2018-09-19T09:14:47.971Z,1013.84
2018-09-19T09:15:57.952Z,1013.94
2018-09-19T09:17:07.988Z,1013.91
2018-09-19T09:18:17.963Z,1013.9
2018-09-19T09:19:27.943Z,1013.89
2018-09-19T09:20:37.645Z,1013.92
2018-09-19T09:21:47.650Z,1013.94
2018-09-19T09:22:57.631Z,1013.96
2018-09-19T09:24:07.607Z,1013.93
2018-09-19T09:25:17.134Z,1013.93
2018-09-19T09:26:27.087Z,1014
2018-09-19T09:27:36.819Z,1013.97
2018-09-19T09:28:46.538Z,1013.98
2018-09-19T09:29:56.504Z,1014.01
2018-09-19T09:31:06.281Z,1013.97
2018-09-19T09:33:26.422Z,1013.86
2018-09-19T09:34:36.415Z,1013.93
2018-09-19T09:35:46.309Z,1013.9
2018-09-19T09:36:56.423Z,1013.9
2018-09-19T09:38:06.171Z,1013.83
2018-09-19T09:39:16.143Z,1013.87
2018-09-19T09:40:26.216Z,1013.85
2018-09-19T09:41:36.480Z,1013.84
2018-09-19T09:42:46.238Z,1013.81
2018-09-19T09:43:56.070Z,1013.89
2018-09-19T09:45:05.508Z,1013.85
2018-09-19T09:46:15.525Z,1013.82
2018-09-19T09:47:25.520Z,1013.89
2018-09-19T09:48:35.522Z,1013.84
2018-09-19T09:49:44.992Z,1013.93
2018-09-19T09:50:54.718Z,1013.88
2018-09-19T09:52:04.442Z,1013.88
2018-09-19T09:53:14.179Z,1013.95
2018-09-19T09:54:24.715Z,1013.93
2018-09-19T09:55:34.690Z,1013.92
2018-09-19T09:56:44.650Z,1013.96
2018-09-19T09:57:54.648Z,1013.88
2018-09-19T09:59:04.354Z,1013.94
2018-09-19T10:00:13.834Z,1013.93
2018-09-19T10:01:23.815Z,1013.85
2018-09-19T10:02:33.800Z,1013.81
2018-09-19T10:03:43.799Z,1013.76
2018-09-19T10:04:53.784Z,1013.8
2018-09-19T10:06:03.770Z,1013.75
2018-09-19T10:07:13.540Z,1013.8
2018-09-19T10:08:23.533Z,1013.8
2018-09-19T10:09:33.273Z,1013.76
2018-09-19T10:10:43.246Z,1013.78
2018-09-19T10:11:53.339Z,1013.87
2018-09-19T10:13:03.334Z,1013.82
2018-09-19T10:14:13.328Z,1013.74
2018-09-19T10:15:23.032Z,1013.73
2018-09-19T10:16:32.834Z,1013.68
2018-09-19T10:17:42.554Z,1013.73
2018-09-19T10:18:52.521Z,1013.78
2018-09-19T10:20:02.242Z,1013.73
2018-09-19T10:21:12.216Z,1013.77
2018-09-19T10:22:22.183Z,1013.71
2018-09-19T10:23:32.130Z,1013.72
2018-09-19T10:24:42.162Z,1013.76
2018-09-19T10:25:52.121Z,1013.77
2018-09-19T10:27:02.109Z,1013.78
2018-09-19T10:28:12.067Z,1013.79
2018-09-19T10:29:22.047Z,1013.82
2018-09-19T10:30:32.214Z,1013.72
2018-09-19T10:31:42.185Z,1013.7
2018-09-19T10:32:52.154Z,1013.71
2018-09-19T10:34:02.143Z,1013.71
2018-09-19T10:35:11.864Z,1013.7
2018-09-19T10:36:22.036Z,1013.62
2018-09-19T10:37:32.003Z,1013.6
2018-09-19T10:38:42.007Z,1013.61
2018-09-19T10:39:51.974Z,1013.59
2018-09-19T10:41:01.689Z,1013.55
2018-09-19T10:42:11.687Z,1013.66
2018-09-19T10:43:21.418Z,1013.53
2018-09-19T10:44:31.616Z,1013.5
2018-09-19T10:45:41.348Z,1013.6
2018-09-19T10:46:51.060Z,1013.57
2018-09-19T10:48:01.055Z,1013.51
2018-09-19T10:49:10.497Z,1013.54
2018-09-19T10:50:20.619Z,1013.53
2018-09-19T10:51:30.594Z,1013.52
2018-09-19T10:52:40.596Z,1013.52
2018-09-19T10:53:50.614Z,1013.51
2018-09-19T10:55:00.602Z,1013.43
2018-09-19T10:56:10.575Z,1013.45
2018-09-19T10:57:20.576Z,1013.36
2018-09-19T10:58:30.788Z,1013.39
2018-09-19T10:59:40.503Z,1013.43
2018-09-19T11:00:50.465Z,1013.4
2018-09-19T11:02:00.437Z,1013.37
2018-09-19T11:03:10.410Z,1013.37
2018-09-19T11:04:20.365Z,1013.35
2018-09-19T11:05:30.098Z,1013.3
2018-09-19T11:06:40.059Z,1013.29
2018-09-19T11:07:49.784Z,1013.32
2018-09-19T11:08:59.780Z,1013.25
2018-09-19T11:10:09.772Z,1013.3
2018-09-19T11:11:19.492Z,1013.28
2018-09-19T11:12:29.482Z,1013.32
2018-09-19T11:13:39.011Z,1013.3
2018-09-19T11:14:48.744Z,1013.33
2018-09-19T11:15:58.726Z,1013.36
2018-09-19T11:17:08.464Z,1013.28
2018-09-19T11:18:18.633Z,1013.37
2018-09-19T11:19:28.358Z,1013.24
2018-09-19T11:20:38.328Z,1013.26
2018-09-19T11:21:48.060Z,1013.22
2018-09-19T11:22:57.821Z,1013.21
2018-09-19T11:24:07.799Z,1013.23
2018-09-19T11:25:17.792Z,1013.19
2018-09-19T11:26:27.815Z,1013.17
2018-09-19T11:27:38.100Z,1013.15
2018-09-19T11:28:47.802Z,1013.17
2018-09-19T11:29:57.773Z,1013.15
2018-09-19T11:31:07.479Z,1013.21
2018-09-19T11:32:17.454Z,1013.22
2018-09-19T11:33:27.468Z,1013.23
2018-09-19T11:34:37.630Z,1013.15
2018-09-19T11:35:47.611Z,1013.18
2018-09-19T11:36:57.586Z,1013.13
2018-09-19T11:38:07.298Z,1013.2
2018-09-19T11:39:17.293Z,1013.11
2018-09-19T11:40:27.246Z,1013.14
2018-09-19T11:41:37.215Z,1013.12
2018-09-19T11:42:47.230Z,1013.04
2018-09-19T11:43:57.215Z,1013.13
2018-09-19T11:45:07.068Z,1013.09
2018-09-19T11:46:16.789Z,1013.01
2018-09-19T11:47:26.750Z,1013.03
2018-09-19T11:48:36.756Z,1013.03
2018-09-19T11:49:47.115Z,1013
2018-09-19T11:50:57.080Z,1013.06
2018-09-19T11:52:06.798Z,1013.06
2018-09-19T11:53:16.768Z,1013.08
2018-09-19T11:54:26.718Z,1013.01
2018-09-19T11:55:36.425Z,1013
2018-09-19T11:56:46.390Z,1013.01
2018-09-19T11:57:55.878Z,1013.07
2018-09-19T11:59:05.835Z,1013.04
2018-09-19T12:00:15.809Z,1013.02
2018-09-19T12:01:25.766Z,1013.04
2018-09-19T12:02:35.492Z,1013.07
2018-09-19T12:03:45.675Z,1013.03
2018-09-19T12:04:55.383Z,1013.09
2018-09-19T12:06:05.344Z,1013.06
2018-09-19T12:07:15.066Z,1013
2018-09-19T12:08:25.353Z,1012.91
2018-09-19T12:09:35.055Z,1012.94
2018-09-19T12:10:45.017Z,1012.86
2018-09-19T12:11:54.993Z,1012.9
2018-09-19T12:13:04.715Z,1012.88
2018-09-19T12:14:14.673Z,1012.92
2018-09-19T12:15:24.404Z,1012.92
2018-09-19T12:16:34.360Z,1012.87
2018-09-19T12:17:44.340Z,1012.83
2018-09-19T12:18:54.310Z,1012.83
2018-09-19T12:20:04.291Z,1012.78
2018-09-19T12:21:14.001Z,1012.78
2018-09-19T12:22:23.725Z,1012.8
2018-09-19T12:23:33.468Z,1012.79
2018-09-19T12:24:43.172Z,1012.81
2018-09-19T12:25:53.139Z,1012.81
2018-09-19T12:27:03.106Z,1012.78
2018-09-19T12:28:13.080Z,1012.77
2018-09-19T12:29:22.809Z,1012.73
2018-09-19T12:30:32.320Z,1012.75
2018-09-19T12:31:42.292Z,1012.69
2018-09-19T12:32:52.263Z,1012.7
2018-09-19T12:34:01.987Z,1012.63
2018-09-19T12:35:11.960Z,1012.63
2018-09-19T12:36:21.437Z,1012.64
2018-09-19T12:37:31.158Z,1012.63
2018-09-19T12:38:40.878Z,1012.6
2018-09-19T12:39:50.326Z,1012.73
2018-09-19T12:41:00.558Z,1012.69
2018-09-19T12:42:10.604Z,1012.62
2018-09-19T12:43:20.578Z,1012.61
2018-09-19T12:44:30.308Z,1012.63
2018-09-19T12:45:40.282Z,1012.64
2018-09-19T12:46:50.308Z,1012.63
2018-09-19T12:48:00.020Z,1012.63
2018-09-19T12:49:09.804Z,1012.63
2018-09-19T12:50:20.080Z,1012.61
2018-09-19T12:51:29.551Z,1012.67
2018-09-19T12:52:39.526Z,1012.63
2018-09-19T12:53:49.495Z,1012.64
2018-09-19T12:54:59.497Z,1012.62
2018-09-19T12:56:09.476Z,1012.63
2018-09-19T12:57:19.446Z,1012.76
2018-09-19T12:58:29.433Z,1012.62
2018-09-19T12:59:39.400Z,1012.7
2018-09-19T13:00:49.101Z,1012.7
2018-09-19T13:01:59.060Z,1012.6
2018-09-19T13:03:09.055Z,1012.59
2018-09-19T13:04:18.781Z,1012.63
2018-09-19T13:05:28.759Z,1012.57
2018-09-19T13:06:38.726Z,1012.52
2018-09-19T13:07:48.438Z,1012.5
2018-09-19T13:08:58.418Z,1012.51
2018-09-19T13:10:08.391Z,1012.49
2018-09-19T13:11:18.122Z,1012.48
2018-09-19T13:12:28.085Z,1012.51
2018-09-19T13:13:38.061Z,1012.45
2018-09-19T13:14:47.783Z,1012.41
2018-09-19T13:15:57.492Z,1012.52
2018-09-19T13:17:07.462Z,1012.35
2018-09-19T13:18:17.166Z,1012.35
2018-09-19T13:19:27.121Z,1012.36
2018-09-19T13:20:37.084Z,1012.45
2018-09-19T13:21:47.060Z,1012.41
2018-09-19T13:22:56.776Z,1012.37
2018-09-19T13:24:06.759Z,1012.31
2018-09-19T13:25:16.732Z,1012.25
2018-09-19T13:26:26.686Z,1012.18
2018-09-19T13:27:36.677Z,1012.2
2018-09-19T13:28:46.667Z,1012.13
2018-09-19T13:29:56.384Z,1012.16
2018-09-19T13:31:06.369Z,1012.18
2018-09-19T13:32:16.335Z,1012.14
2018-09-19T13:33:26.309Z,1012.13
2018-09-19T13:34:36.289Z,1012.07
2018-09-19T13:35:46.268Z,1012.02
2018-09-19T13:36:56.232Z,1012.04
2018-09-19T13:38:06.190Z,1012.02
2018-09-19T13:39:16.179Z,1012.04
2018-09-19T13:40:25.880Z,1012.05
2018-09-19T13:41:35.600Z,1012.06
2018-09-19T13:42:45.328Z,1012.07
2018-09-19T13:43:55.302Z,1012.01
2018-09-19T13:45:05.283Z,1012.02
2018-09-19T13:46:15.245Z,1012.11
2018-09-19T13:47:25.219Z,1012.12
2018-09-19T13:48:35.255Z,1012.1
2018-09-19T13:49:44.723Z,1012.12
2018-09-19T13:50:54.692Z,1012.16
2018-09-19T13:52:04.674Z,1012.18
2018-09-19T13:53:14.641Z,1012.17
2018-09-19T13:54:24.361Z,1012.13
2018-09-19T13:55:34.324Z,1012.12
2018-09-19T13:56:44.062Z,1012.13
2018-09-19T13:57:54.056Z,1012.1
2018-09-19T13:59:03.941Z,1012.12
2018-09-19T14:00:13.936Z,1012.2
2018-09-19T14:01:23.891Z,1012.15
2018-09-19T14:02:33.874Z,1012.08
2018-09-19T14:03:43.863Z,1012.05
2018-09-19T14:04:53.839Z,1012.07
2018-09-19T14:06:03.591Z,1011.98
2018-09-19T14:07:13.307Z,1011.96
2018-09-19T14:08:23.030Z,1011.99
2018-09-19T14:09:32.732Z,1011.98